CSN8032 ZBAD-ZSHC
Flight info
| Callsign | CSN8032 |
|---|---|
| Flight time | 1h 28m |
| Altitude | 39100 |
| Route | ELKUR4K ELKUR W40 YQG/K0846S1220 W142 DALIM/K0846S1190 A593 DPX A470 OF W95 SAPIN A470 IGRAT IGRAT91 |
| Aircraft | CL60/M-SBDE1E2E3FGHIJ1J4J5J7M3RWXYZ/LB1V1D1 |
Departure
| Time | 2026-05-05 15:17 |
|---|---|
| Airport | Beijing Daxing International Airport (ZBAD) |
Arrival
| Time | 2026-05-05 16:46 |
|---|---|
| Airport | Hangzhou Xiaoshan International Airport (ZSHC) |
| Time | Latitude | Longitude | Altitude | Speed | Heading |
|---|---|---|---|---|---|
| 2026-05-05 14:54 | 39.51646 | 116.40132 | 90 ft | 0 kts | 83° |
| 2026-05-05 15:08 | 39.51644 | 116.40118 | 90 ft | 2 kts | 83° |
| 2026-05-05 15:08 | 39.51643 | 116.40099 | 90 ft | 2 kts | 83° |
| 2026-05-05 15:08 | 39.51641 | 116.40086 | 89 ft | 2 kts | 77° |
| 2026-05-05 15:08 | 39.51633 | 116.40071 | 90 ft | 2 kts | 36° |
| 2026-05-05 15:09 | 39.51620 | 116.40066 | 90 ft | 1 kts | 357° |
| 2026-05-05 15:09 | 39.51616 | 116.40066 | 90 ft | 0 kts | 352° |
| 2026-05-05 15:10 | 39.51629 | 116.40063 | 90 ft | 5 kts | 352° |
| 2026-05-05 15:10 | 39.51647 | 116.40060 | 89 ft | 0 kts | 352° |
| 2026-05-05 15:12 | 39.51655 | 116.40053 | 89 ft | 4 kts | 310° |
| 2026-05-05 15:12 | 39.51659 | 116.40004 | 90 ft | 6 kts | 257° |
| 2026-05-05 15:12 | 39.51689 | 116.39964 | 90 ft | 9 kts | 357° |
| 2026-05-05 15:13 | 39.51761 | 116.39953 | 89 ft | 6 kts | 351° |
| 2026-05-05 15:13 | 39.51804 | 116.39906 | 89 ft | 10 kts | 283° |
| 2026-05-05 15:13 | 39.51795 | 116.39800 | 90 ft | 13 kts | 263° |
| 2026-05-05 15:13 | 39.51785 | 116.39675 | 90 ft | 14 kts | 263° |
| 2026-05-05 15:14 | 39.51783 | 116.39665 | 90 ft | 0 kts | 263° |
| 2026-05-05 15:14 | 39.51783 | 116.39655 | 90 ft | 3 kts | 263° |
| 2026-05-05 15:14 | 39.51776 | 116.39587 | 90 ft | 11 kts | 263° |
| 2026-05-05 15:14 | 39.51763 | 116.39459 | 90 ft | 17 kts | 263° |
| 2026-05-05 15:15 | 39.51746 | 116.39273 | 90 ft | 23 kts | 264° |
| 2026-05-05 15:15 | 39.51732 | 116.39123 | 90 ft | 4 kts | 263° |
| 2026-05-05 15:15 | 39.51725 | 116.39091 | 90 ft | 1 kts | 258° |
| 2026-05-05 15:15 | 39.51722 | 116.39048 | 90 ft | 8 kts | 266° |
| 2026-05-05 15:16 | 39.51715 | 116.38941 | 90 ft | 15 kts | 264° |
| 2026-05-05 15:16 | 39.51674 | 116.38789 | 90 ft | 21 kts | 214° |
| 2026-05-05 15:16 | 39.51618 | 116.38751 | 90 ft | 4 kts | 187° |
| 2026-05-05 15:16 | 39.51591 | 116.38751 | 90 ft | 0 kts | 175° |
| 2026-05-05 15:17 | 39.51573 | 116.38754 | 90 ft | 22 kts | 173° |
| 2026-05-05 15:17 | 39.51054 | 116.38834 | 90 ft | 124 kts | 174° |
| 2026-05-05 15:17 | 39.49997 | 116.39007 | 256 ft | 168 kts | 174° |
| 2026-05-05 15:17 | 39.48789 | 116.39233 | 849 ft | 181 kts | 171° |
| 2026-05-05 15:18 | 39.47715 | 116.39674 | 2313 ft | 159 kts | 166° |
| 2026-05-05 15:18 | 39.46666 | 116.39969 | 3178 ft | 171 kts | 181° |
| 2026-05-05 15:18 | 39.45419 | 116.40083 | 3777 ft | 186 kts | 182° |
| 2026-05-05 15:18 | 39.44114 | 116.40194 | 4516 ft | 193 kts | 182° |
| 2026-05-05 15:19 | 39.42674 | 116.40314 | 5271 ft | 221 kts | 181° |
| 2026-05-05 15:19 | 39.41153 | 116.40458 | 6494 ft | 228 kts | 180° |
| 2026-05-05 15:19 | 39.39541 | 116.40642 | 7579 ft | 240 kts | 178° |
| 2026-05-05 15:19 | 39.37814 | 116.40962 | 8441 ft | 264 kts | 169° |
| 2026-05-05 15:20 | 39.36118 | 116.41979 | 9447 ft | 283 kts | 146° |
| 2026-05-05 15:20 | 39.34808 | 116.43900 | 10495 ft | 296 kts | 118° |
| 2026-05-05 15:20 | 39.34333 | 116.46523 | 11453 ft | 310 kts | 87° |
| 2026-05-05 15:20 | 39.34608 | 116.49265 | 12413 ft | 320 kts | 79° |
| 2026-05-05 15:21 | 39.34958 | 116.52151 | 13492 ft | 327 kts | 79° |
| 2026-05-05 15:21 | 39.35315 | 116.55168 | 13914 ft | 356 kts | 80° |
| 2026-05-05 15:21 | 39.35439 | 116.58454 | 14482 ft | 376 kts | 92° |
| 2026-05-05 15:21 | 39.35245 | 116.61882 | 15228 ft | 388 kts | 94° |
| 2026-05-05 15:22 | 39.35043 | 116.65374 | 16165 ft | 393 kts | 94° |
| 2026-05-05 15:22 | 39.34841 | 116.68865 | 17082 ft | 396 kts | 94° |
| 2026-05-05 15:22 | 39.34634 | 116.72428 | 17937 ft | 401 kts | 95° |
| 2026-05-05 15:22 | 39.34398 | 116.76012 | 18651 ft | 408 kts | 98° |
| 2026-05-05 15:23 | 39.33650 | 116.79578 | 19405 ft | 411 kts | 115° |
| 2026-05-05 15:23 | 39.32212 | 116.82708 | 20066 ft | 413 kts | 131° |
| 2026-05-05 15:23 | 39.30116 | 116.85246 | 20760 ft | 412 kts | 149° |
| 2026-05-05 15:23 | 39.27589 | 116.86929 | 21406 ft | 410 kts | 162° |
| 2026-05-05 15:24 | 39.24915 | 116.88277 | 21986 ft | 416 kts | 162° |
| 2026-05-05 15:24 | 39.22201 | 116.89646 | 22694 ft | 418 kts | 163° |
| 2026-05-05 15:24 | 39.19472 | 116.91023 | 23305 ft | 423 kts | 163° |
| 2026-05-05 15:24 | 39.16714 | 116.92413 | 23825 ft | 428 kts | 163° |
| 2026-05-05 15:25 | 39.13920 | 116.93819 | 24297 ft | 435 kts | 163° |
| 2026-05-05 15:25 | 39.11072 | 116.95253 | 24827 ft | 439 kts | 163° |
| 2026-05-05 15:25 | 39.08200 | 116.96699 | 25291 ft | 444 kts | 163° |
| 2026-05-05 15:25 | 39.05267 | 116.98173 | 25736 ft | 449 kts | 163° |
| 2026-05-05 15:26 | 39.02344 | 116.99643 | 26191 ft | 453 kts | 162° |
| 2026-05-05 15:26 | 38.99360 | 117.01140 | 26571 ft | 459 kts | 162° |
| 2026-05-05 15:26 | 38.96368 | 117.02642 | 27021 ft | 462 kts | 162° |
| 2026-05-05 15:26 | 38.93363 | 117.04147 | 27371 ft | 467 kts | 162° |
| 2026-05-05 15:27 | 38.90258 | 117.05342 | 27760 ft | 463 kts | 174° |
| 2026-05-05 15:27 | 38.87051 | 117.05549 | 28179 ft | 456 kts | 189° |
| 2026-05-05 15:27 | 38.83977 | 117.04754 | 28543 ft | 449 kts | 204° |
| 2026-05-05 15:27 | 38.81142 | 117.03029 | 28784 ft | 444 kts | 218° |
| 2026-05-05 15:28 | 38.78794 | 117.00527 | 29103 ft | 436 kts | 232° |
| 2026-05-05 15:28 | 38.77012 | 116.97463 | 29362 ft | 432 kts | 244° |
| 2026-05-05 15:28 | 38.75584 | 116.94083 | 29619 ft | 434 kts | 246° |
| 2026-05-05 15:29 | 38.72671 | 116.87105 | 29663 ft | 450 kts | 246° |
| 2026-05-05 15:29 | 38.69680 | 116.79973 | 29775 ft | 460 kts | 246° |
| 2026-05-05 15:29 | 38.68152 | 116.76343 | 29888 ft | 462 kts | 246° |
| 2026-05-05 15:30 | 38.66353 | 116.72824 | 30018 ft | 470 kts | 236° |
| 2026-05-05 15:30 | 38.64018 | 116.69825 | 30158 ft | 480 kts | 224° |
| 2026-05-05 15:30 | 38.61171 | 116.67496 | 30394 ft | 489 kts | 212° |
| 2026-05-05 15:30 | 38.57934 | 116.66000 | 30588 ft | 499 kts | 199° |
| 2026-05-05 15:31 | 38.54469 | 116.65377 | 30773 ft | 506 kts | 190° |
| 2026-05-05 15:31 | 38.50914 | 116.64982 | 30984 ft | 506 kts | 190° |
| 2026-05-05 15:31 | 38.47424 | 116.64586 | 31187 ft | 506 kts | 190° |
| 2026-05-05 15:31 | 38.43917 | 116.64186 | 31386 ft | 507 kts | 191° |
| 2026-05-05 15:32 | 38.40395 | 116.63785 | 31579 ft | 508 kts | 191° |
| 2026-05-05 15:32 | 38.36878 | 116.63385 | 31764 ft | 509 kts | 191° |
| 2026-05-05 15:32 | 38.33315 | 116.63070 | 31953 ft | 512 kts | 187° |
| 2026-05-05 15:32 | 38.29754 | 116.63181 | 32119 ft | 518 kts | 180° |
| 2026-05-05 15:33 | 38.26142 | 116.63800 | 32282 ft | 523 kts | 173° |
| 2026-05-05 15:33 | 38.22585 | 116.64922 | 32447 ft | 528 kts | 167° |
| 2026-05-05 15:33 | 38.19069 | 116.66237 | 32610 ft | 529 kts | 167° |
| 2026-05-05 15:33 | 38.15551 | 116.67549 | 32770 ft | 530 kts | 167° |
| 2026-05-05 15:34 | 38.11981 | 116.68877 | 32935 ft | 532 kts | 167° |
| 2026-05-05 15:34 | 38.08443 | 116.70214 | 33092 ft | 533 kts | 166° |
| 2026-05-05 15:34 | 38.04877 | 116.71578 | 33249 ft | 535 kts | 166° |
| 2026-05-05 15:34 | 38.01337 | 116.72931 | 33404 ft | 536 kts | 166° |
| 2026-05-05 15:35 | 37.97722 | 116.74309 | 33559 ft | 538 kts | 166° |
| 2026-05-05 15:35 | 37.94156 | 116.75668 | 33707 ft | 539 kts | 166° |
| 2026-05-05 15:35 | 37.90559 | 116.77036 | 33876 ft | 540 kts | 166° |
| 2026-05-05 15:35 | 37.86959 | 116.78405 | 34036 ft | 541 kts | 166° |
| 2026-05-05 15:36 | 37.83353 | 116.79774 | 34173 ft | 542 kts | 166° |
| 2026-05-05 15:36 | 37.79694 | 116.81161 | 34314 ft | 543 kts | 166° |
| 2026-05-05 15:36 | 37.76041 | 116.82545 | 34456 ft | 544 kts | 166° |
| 2026-05-05 15:36 | 37.72464 | 116.83898 | 34591 ft | 544 kts | 166° |
| 2026-05-05 15:37 | 37.68818 | 116.85275 | 34735 ft | 545 kts | 166° |
| 2026-05-05 15:37 | 37.65146 | 116.86661 | 34872 ft | 545 kts | 166° |
| 2026-05-05 15:37 | 37.61516 | 116.88030 | 35010 ft | 546 kts | 166° |
| 2026-05-05 15:37 | 37.57902 | 116.89391 | 35145 ft | 546 kts | 166° |
| 2026-05-05 15:38 | 37.54220 | 116.90776 | 35276 ft | 547 kts | 165° |
| 2026-05-05 15:38 | 37.50618 | 116.92130 | 35408 ft | 547 kts | 166° |
| 2026-05-05 15:38 | 37.46955 | 116.93505 | 35542 ft | 547 kts | 166° |
| 2026-05-05 15:38 | 37.43323 | 116.94867 | 35670 ft | 548 kts | 166° |
| 2026-05-05 15:39 | 37.39643 | 116.96246 | 35804 ft | 548 kts | 166° |
| 2026-05-05 15:39 | 37.35986 | 116.97614 | 35935 ft | 548 kts | 165° |
| 2026-05-05 15:39 | 37.32339 | 116.98978 | 36066 ft | 549 kts | 166° |
| 2026-05-05 15:39 | 37.28703 | 117.00394 | 36201 ft | 550 kts | 162° |
| 2026-05-05 15:40 | 37.25133 | 117.02047 | 36328 ft | 551 kts | 161° |
| 2026-05-05 15:40 | 37.21508 | 117.03759 | 36450 ft | 551 kts | 160° |
| 2026-05-05 15:40 | 37.17951 | 117.05430 | 36572 ft | 551 kts | 161° |
| 2026-05-05 15:40 | 37.14334 | 117.07127 | 36696 ft | 552 kts | 160° |
| 2026-05-05 15:41 | 37.10750 | 117.08804 | 36816 ft | 552 kts | 160° |
| 2026-05-05 15:41 | 37.07160 | 117.10484 | 36938 ft | 553 kts | 160° |
| 2026-05-05 15:41 | 37.03562 | 117.12163 | 37043 ft | 553 kts | 161° |
| 2026-05-05 15:41 | 36.99958 | 117.13844 | 37161 ft | 554 kts | 160° |
| 2026-05-05 15:42 | 36.96342 | 117.15529 | 37282 ft | 554 kts | 161° |
| 2026-05-05 15:42 | 36.92703 | 117.17222 | 37389 ft | 555 kts | 161° |
| 2026-05-05 15:42 | 36.89099 | 117.18883 | 37493 ft | 555 kts | 161° |
| 2026-05-05 15:43 | 36.81632 | 117.21147 | 37615 ft | 552 kts | 175° |
| 2026-05-05 15:43 | 36.74009 | 117.21548 | 37746 ft | 548 kts | 185° |
| 2026-05-05 15:44 | 36.66395 | 117.21494 | 37891 ft | 549 kts | 185° |
| 2026-05-05 15:44 | 36.58738 | 117.21443 | 38037 ft | 550 kts | 185° |
| 2026-05-05 15:45 | 36.51075 | 117.21391 | 38184 ft | 551 kts | 185° |
| 2026-05-05 15:45 | 36.43403 | 117.21598 | 38326 ft | 555 kts | 178° |
| 2026-05-05 15:46 | 36.35813 | 117.23522 | 38447 ft | 561 kts | 164° |
| 2026-05-05 15:46 | 36.28339 | 117.26315 | 38592 ft | 561 kts | 164° |
| 2026-05-05 15:47 | 36.20834 | 117.29108 | 38740 ft | 561 kts | 164° |
| 2026-05-05 15:47 | 36.13362 | 117.31881 | 38887 ft | 562 kts | 164° |
| 2026-05-05 15:48 | 36.05906 | 117.34641 | 38958 ft | 562 kts | 165° |
| 2026-05-05 15:48 | 35.98407 | 117.37418 | 38949 ft | 563 kts | 165° |
| 2026-05-05 15:49 | 35.90931 | 117.40222 | 38963 ft | 562 kts | 163° |
| 2026-05-05 15:49 | 35.83463 | 117.43017 | 38967 ft | 561 kts | 164° |
| 2026-05-05 15:50 | 35.76018 | 117.45797 | 38968 ft | 560 kts | 164° |
| 2026-05-05 15:50 | 35.68538 | 117.48584 | 38972 ft | 560 kts | 163° |
| 2026-05-05 15:51 | 35.61059 | 117.51364 | 38976 ft | 560 kts | 163° |
| 2026-05-05 15:51 | 35.53627 | 117.54122 | 38987 ft | 560 kts | 164° |
| 2026-05-05 15:52 | 35.46127 | 117.56900 | 38976 ft | 559 kts | 163° |
| 2026-05-05 15:52 | 35.38717 | 117.59638 | 38987 ft | 558 kts | 163° |
| 2026-05-05 15:53 | 35.31273 | 117.62384 | 38992 ft | 558 kts | 163° |
| 2026-05-05 15:53 | 35.23820 | 117.65128 | 38991 ft | 556 kts | 164° |
| 2026-05-05 15:54 | 35.16402 | 117.67852 | 38989 ft | 556 kts | 164° |
| 2026-05-05 15:54 | 35.08954 | 117.70584 | 38981 ft | 555 kts | 163° |
| 2026-05-05 15:55 | 35.01579 | 117.73287 | 38985 ft | 554 kts | 163° |
| 2026-05-05 15:55 | 34.94192 | 117.75990 | 38979 ft | 554 kts | 164° |
| 2026-05-05 15:56 | 34.86803 | 117.78690 | 38998 ft | 552 kts | 164° |
| 2026-05-05 15:56 | 34.79402 | 117.81390 | 38992 ft | 551 kts | 164° |
| 2026-05-05 15:57 | 34.72088 | 117.84024 | 39006 ft | 550 kts | 164° |
| 2026-05-05 15:57 | 34.64755 | 117.86660 | 38982 ft | 551 kts | 164° |
| 2026-05-05 15:58 | 34.57399 | 117.89299 | 38978 ft | 550 kts | 164° |
| 2026-05-05 15:58 | 34.50089 | 117.91917 | 38987 ft | 548 kts | 164° |
| 2026-05-05 15:59 | 34.42759 | 117.94537 | 38972 ft | 548 kts | 165° |
| 2026-05-05 15:59 | 34.35449 | 117.97146 | 38954 ft | 547 kts | 164° |
| 2026-05-05 16:00 | 34.28132 | 117.99753 | 38983 ft | 547 kts | 164° |
| 2026-05-05 16:00 | 34.20850 | 118.02401 | 39000 ft | 545 kts | 164° |
| 2026-05-05 16:01 | 34.13617 | 118.05034 | 38993 ft | 544 kts | 164° |
| 2026-05-05 16:01 | 34.06370 | 118.07667 | 38971 ft | 544 kts | 164° |
| 2026-05-05 16:02 | 33.99105 | 118.10305 | 39005 ft | 542 kts | 164° |
| 2026-05-05 16:02 | 33.91871 | 118.12940 | 38986 ft | 541 kts | 164° |
| 2026-05-05 16:03 | 33.84676 | 118.15555 | 38991 ft | 538 kts | 164° |
| 2026-05-05 16:03 | 33.77492 | 118.18168 | 39010 ft | 537 kts | 164° |
| 2026-05-05 16:04 | 33.70344 | 118.20771 | 39012 ft | 536 kts | 164° |
| 2026-05-05 16:04 | 33.63225 | 118.23359 | 38990 ft | 535 kts | 164° |
| 2026-05-05 16:05 | 33.56083 | 118.25951 | 39019 ft | 533 kts | 164° |
| 2026-05-05 16:05 | 33.49015 | 118.28511 | 39017 ft | 531 kts | 164° |
| 2026-05-05 16:06 | 33.41947 | 118.31067 | 39004 ft | 531 kts | 164° |
| 2026-05-05 16:06 | 33.34846 | 118.33630 | 39022 ft | 530 kts | 164° |
| 2026-05-05 16:07 | 33.27811 | 118.36166 | 39016 ft | 529 kts | 164° |
| 2026-05-05 16:07 | 33.20746 | 118.38709 | 39023 ft | 528 kts | 164° |
| 2026-05-05 16:08 | 33.13759 | 118.41226 | 39020 ft | 526 kts | 164° |
| 2026-05-05 16:08 | 33.06739 | 118.43751 | 39022 ft | 525 kts | 164° |
| 2026-05-05 16:09 | 32.99736 | 118.46265 | 39018 ft | 525 kts | 164° |
| 2026-05-05 16:09 | 32.92754 | 118.48769 | 39033 ft | 524 kts | 164° |
| 2026-05-05 16:10 | 32.85712 | 118.51289 | 39023 ft | 523 kts | 164° |
| 2026-05-05 16:10 | 32.78733 | 118.53782 | 39033 ft | 523 kts | 164° |
| 2026-05-05 16:11 | 32.71805 | 118.56253 | 39028 ft | 522 kts | 164° |
| 2026-05-05 16:12 | 32.57817 | 118.61089 | 39020 ft | 521 kts | 165° |
| 2026-05-05 16:13 | 32.40406 | 118.66991 | 39043 ft | 520 kts | 166° |
| 2026-05-05 16:13 | 32.33440 | 118.69345 | 39042 ft | 519 kts | 166° |
| 2026-05-05 16:14 | 32.19556 | 118.74012 | 39045 ft | 518 kts | 166° |
| 2026-05-05 16:15 | 32.05669 | 118.78655 | 39030 ft | 517 kts | 166° |
| 2026-05-05 16:16 | 31.91794 | 118.83189 | 39041 ft | 516 kts | 167° |
| 2026-05-05 16:17 | 31.81419 | 118.86651 | 39054 ft | 516 kts | 162° |
| 2026-05-05 16:18 | 31.74933 | 118.90299 | 39047 ft | 519 kts | 150° |
| 2026-05-05 16:18 | 31.71967 | 118.92718 | 39044 ft | 520 kts | 143° |
| 2026-05-05 16:19 | 31.63460 | 119.00609 | 38736 ft | 523 kts | 146° |
| 2026-05-05 16:19 | 31.60504 | 119.03172 | 38303 ft | 521 kts | 144° |
| 2026-05-05 16:19 | 31.54829 | 119.08159 | 37382 ft | 502 kts | 143° |
| 2026-05-05 16:20 | 31.49321 | 119.12994 | 36449 ft | 488 kts | 143° |
| 2026-05-05 16:20 | 31.43901 | 119.17738 | 35443 ft | 482 kts | 143° |
| 2026-05-05 16:21 | 31.38537 | 119.22420 | 34280 ft | 480 kts | 142° |
| 2026-05-05 16:22 | 31.30687 | 119.29260 | 32421 ft | 455 kts | 141° |
| 2026-05-05 16:22 | 31.25579 | 119.33704 | 30769 ft | 452 kts | 141° |
| 2026-05-05 16:23 | 31.20663 | 119.37972 | 29543 ft | 431 kts | 141° |
| 2026-05-05 16:23 | 31.18247 | 119.40076 | 28850 ft | 428 kts | 141° |
| 2026-05-05 16:23 | 31.13554 | 119.44179 | 27254 ft | 416 kts | 141° |
| 2026-05-05 16:24 | 31.11241 | 119.46200 | 26738 ft | 409 kts | 141° |
| 2026-05-05 16:24 | 31.08972 | 119.48183 | 26008 ft | 408 kts | 141° |
| 2026-05-05 16:24 | 31.04441 | 119.52135 | 24875 ft | 396 kts | 141° |
| 2026-05-05 16:25 | 31.02259 | 119.54038 | 24755 ft | 394 kts | 141° |
| 2026-05-05 16:25 | 30.97846 | 119.57884 | 24775 ft | 402 kts | 141° |
| 2026-05-05 16:25 | 30.95590 | 119.59849 | 24769 ft | 402 kts | 141° |
| 2026-05-05 16:26 | 30.91070 | 119.63779 | 23951 ft | 406 kts | 141° |
| 2026-05-05 16:26 | 30.86655 | 119.67612 | 21933 ft | 388 kts | 143° |
| 2026-05-05 16:27 | 30.84516 | 119.69469 | 21010 ft | 377 kts | 143° |
| 2026-05-05 16:27 | 30.82451 | 119.71261 | 20108 ft | 368 kts | 143° |
| 2026-05-05 16:27 | 30.80407 | 119.73036 | 19367 ft | 364 kts | 144° |
| 2026-05-05 16:27 | 30.78392 | 119.74782 | 18247 ft | 362 kts | 144° |
| 2026-05-05 16:28 | 30.76397 | 119.76510 | 17309 ft | 354 kts | 145° |
| 2026-05-05 16:28 | 30.74454 | 119.78191 | 16384 ft | 347 kts | 144° |
| 2026-05-05 16:28 | 30.72543 | 119.79845 | 15462 ft | 340 kts | 144° |
| 2026-05-05 16:28 | 30.70672 | 119.81496 | 14530 ft | 335 kts | 143° |
| 2026-05-05 16:29 | 30.68863 | 119.83148 | 13613 ft | 328 kts | 143° |
| 2026-05-05 16:29 | 30.67115 | 119.84744 | 13095 ft | 315 kts | 142° |
| 2026-05-05 16:29 | 30.65371 | 119.86334 | 12544 ft | 318 kts | 143° |
| 2026-05-05 16:29 | 30.63582 | 119.87846 | 12130 ft | 313 kts | 150° |
| 2026-05-05 16:30 | 30.61700 | 119.89061 | 11588 ft | 301 kts | 152° |
| 2026-05-05 16:30 | 30.59910 | 119.90190 | 11424 ft | 292 kts | 152° |
| 2026-05-05 16:30 | 30.58111 | 119.91325 | 10829 ft | 293 kts | 152° |
| 2026-05-05 16:30 | 30.56340 | 119.92446 | 10617 ft | 284 kts | 152° |
| 2026-05-05 16:31 | 30.54573 | 119.93562 | 10169 ft | 288 kts | 152° |
| 2026-05-05 16:31 | 30.52825 | 119.94669 | 9773 ft | 284 kts | 152° |
| 2026-05-05 16:31 | 30.51102 | 119.95760 | 9426 ft | 277 kts | 152° |
| 2026-05-05 16:31 | 30.49401 | 119.96833 | 9031 ft | 278 kts | 152° |
| 2026-05-05 16:32 | 30.47693 | 119.97913 | 8667 ft | 275 kts | 152° |
| 2026-05-05 16:32 | 30.46028 | 119.98965 | 8298 ft | 272 kts | 152° |
| 2026-05-05 16:32 | 30.44347 | 120.00027 | 7945 ft | 270 kts | 152° |
| 2026-05-05 16:32 | 30.42724 | 120.01053 | 7685 ft | 265 kts | 152° |
| 2026-05-05 16:33 | 30.41086 | 120.02089 | 7512 ft | 264 kts | 152° |
| 2026-05-05 16:33 | 30.39467 | 120.03113 | 7651 ft | 264 kts | 152° |
| 2026-05-05 16:33 | 30.37853 | 120.04134 | 7597 ft | 255 kts | 152° |
| 2026-05-05 16:33 | 30.36352 | 120.05084 | 7568 ft | 232 kts | 152° |
| 2026-05-05 16:34 | 30.34912 | 120.05994 | 7521 ft | 242 kts | 152° |
| 2026-05-05 16:34 | 30.33449 | 120.06919 | 7436 ft | 232 kts | 152° |
| 2026-05-05 16:34 | 30.32017 | 120.07823 | 7378 ft | 232 kts | 152° |
| 2026-05-05 16:34 | 30.30611 | 120.08712 | 7309 ft | 231 kts | 152° |
| 2026-05-05 16:35 | 30.29178 | 120.09617 | 7238 ft | 232 kts | 152° |
| 2026-05-05 16:35 | 30.27759 | 120.10513 | 7192 ft | 232 kts | 152° |
| 2026-05-05 16:35 | 30.26326 | 120.11417 | 7136 ft | 232 kts | 152° |
| 2026-05-05 16:35 | 30.24895 | 120.12321 | 7066 ft | 232 kts | 152° |
| 2026-05-05 16:36 | 30.23455 | 120.13211 | 7006 ft | 228 kts | 155° |
| 2026-05-05 16:36 | 30.21947 | 120.13611 | 6951 ft | 222 kts | 179° |
| 2026-05-05 16:36 | 30.20432 | 120.13228 | 6834 ft | 221 kts | 204° |
| 2026-05-05 16:36 | 30.19225 | 120.12141 | 6618 ft | 221 kts | 230° |
| 2026-05-05 16:37 | 30.18455 | 120.10619 | 6402 ft | 217 kts | 242° |
| 2026-05-05 16:37 | 30.17763 | 120.09044 | 6268 ft | 220 kts | 241° |
| 2026-05-05 16:37 | 30.16900 | 120.07600 | 6090 ft | 216 kts | 222° |
| 2026-05-05 16:37 | 30.15615 | 120.06774 | 5879 ft | 211 kts | 194° |
| 2026-05-05 16:38 | 30.14159 | 120.06743 | 5502 ft | 207 kts | 167° |
| 2026-05-05 16:38 | 30.12850 | 120.07380 | 5021 ft | 199 kts | 153° |
| 2026-05-05 16:38 | 30.11635 | 120.08120 | 4966 ft | 200 kts | 153° |
| 2026-05-05 16:38 | 30.10382 | 120.08910 | 4447 ft | 203 kts | 146° |
| 2026-05-05 16:39 | 30.09501 | 120.10090 | 4293 ft | 194 kts | 119° |
| 2026-05-05 16:39 | 30.09141 | 120.11631 | 3803 ft | 207 kts | 94° |
| 2026-05-05 16:39 | 30.09492 | 120.13226 | 3435 ft | 200 kts | 66° |
| 2026-05-05 16:39 | 30.10130 | 120.14623 | 3195 ft | 197 kts | 65° |
| 2026-05-05 16:40 | 30.10743 | 120.16021 | 2960 ft | 191 kts | 66° |
| 2026-05-05 16:40 | 30.11355 | 120.17405 | 2949 ft | 192 kts | 66° |
| 2026-05-05 16:40 | 30.11965 | 120.18774 | 2950 ft | 192 kts | 66° |
| 2026-05-05 16:40 | 30.12578 | 120.20147 | 2949 ft | 192 kts | 66° |
| 2026-05-05 16:41 | 30.13193 | 120.21523 | 2959 ft | 187 kts | 65° |
| 2026-05-05 16:41 | 30.13784 | 120.22847 | 2958 ft | 183 kts | 66° |
| 2026-05-05 16:41 | 30.14361 | 120.24139 | 2982 ft | 176 kts | 66° |
| 2026-05-05 16:41 | 30.14919 | 120.25389 | 2962 ft | 171 kts | 66° |
| 2026-05-05 16:42 | 30.15459 | 120.26601 | 2836 ft | 169 kts | 66° |
| 2026-05-05 16:42 | 30.15991 | 120.27792 | 2617 ft | 161 kts | 66° |
| 2026-05-05 16:42 | 30.16486 | 120.28899 | 2420 ft | 149 kts | 66° |
| 2026-05-05 16:42 | 30.16947 | 120.29934 | 2213 ft | 144 kts | 66° |
| 2026-05-05 16:43 | 30.17408 | 120.30948 | 2002 ft | 140 kts | 66° |
| 2026-05-05 16:43 | 30.17866 | 120.31943 | 1792 ft | 139 kts | 66° |
| 2026-05-05 16:43 | 30.18320 | 120.32928 | 1592 ft | 138 kts | 65° |
| 2026-05-05 16:43 | 30.18772 | 120.33913 | 1392 ft | 138 kts | 66° |
| 2026-05-05 16:44 | 30.19203 | 120.34901 | 1216 ft | 137 kts | 66° |
| 2026-05-05 16:44 | 30.19636 | 120.35890 | 1042 ft | 136 kts | 66° |
| 2026-05-05 16:44 | 30.20070 | 120.36873 | 894 ft | 138 kts | 66° |
| 2026-05-05 16:44 | 30.20496 | 120.37911 | 769 ft | 144 kts | 65° |
| 2026-05-05 16:45 | 30.20962 | 120.38930 | 573 ft | 145 kts | 64° |
| 2026-05-05 16:45 | 30.21412 | 120.39928 | 378 ft | 132 kts | 65° |
| 2026-05-05 16:45 | 30.21827 | 120.40884 | 230 ft | 134 kts | 66° |
| 2026-05-05 16:45 | 30.22236 | 120.41827 | 53 ft | 128 kts | 65° |
| 2026-05-05 16:46 | 30.22607 | 120.42667 | 28 ft | 100 kts | 62° |
| 2026-05-05 16:46 | 30.22871 | 120.43259 | 28 ft | 63 kts | 63° |
| 2026-05-05 16:46 | 30.23006 | 120.43561 | 28 ft | 22 kts | 57° |
| 2026-05-05 16:46 | 30.23109 | 120.43684 | 28 ft | 20 kts | 34° |
| 2026-05-05 16:47 | 30.23221 | 120.43776 | 28 ft | 13 kts | 37° |
| 2026-05-05 16:47 | 30.23305 | 120.43850 | 28 ft | 16 kts | 34° |
| 2026-05-05 16:47 | 30.23401 | 120.43838 | 28 ft | 15 kts | 330° |
| 2026-05-05 16:47 | 30.23511 | 120.43772 | 28 ft | 19 kts | 334° |
| 2026-05-05 16:48 | 30.23613 | 120.43717 | 28 ft | 15 kts | 334° |
| 2026-05-05 16:48 | 30.23640 | 120.43662 | 28 ft | 7 kts | 247° |
| 2026-05-05 16:48 | 30.23650 | 120.43597 | 28 ft | 10 kts | 333° |
| 2026-05-05 16:48 | 30.23699 | 120.43549 | 28 ft | 8 kts | 274° |
| 2026-05-05 16:49 | 30.23672 | 120.43476 | 28 ft | 8 kts | 243° |
| 2026-05-05 16:49 | 30.23668 | 120.43469 | 28 ft | 0 kts | 243° |